sensor_id;sensor_type;location;lat;lon;timestamp;P1;durP1;ratioP1;P2;durP2;ratioP2
21705;SDS011;11014;53.076;18.208;2023-09-19T00:02:23;25.20;;;21.25;;
21705;SDS011;11014;53.076;18.208;2023-09-19T00:04:52;24.10;;;20.60;;
21705;SDS011;11014;53.076;18.208;2023-09-19T00:07:21;26.27;;;21.90;;
21705;SDS011;11014;53.076;18.208;2023-09-19T00:09:50;25.95;;;21.15;;
21705;SDS011;11014;53.076;18.208;2023-09-19T00:12:19;23.83;;;21.23;;
21705;SDS011;11014;53.076;18.208;2023-09-19T00:14:48;25.48;;;21.60;;
21705;SDS011;11014;53.076;18.208;2023-09-19T00:17:16;24.55;;;21.85;;
21705;SDS011;11014;53.076;18.208;2023-09-19T00:19:45;27.40;;;21.90;;
21705;SDS011;11014;53.076;18.208;2023-09-19T00:22:14;24.67;;;20.45;;
21705;SDS011;11014;53.076;18.208;2023-09-19T00:24:44;34.20;;;22.05;;
21705;SDS011;11014;53.076;18.208;2023-09-19T00:27:13;31.42;;;21.00;;
21705;SDS011;11014;53.076;18.208;2023-09-19T00:29:42;25.35;;;21.30;;
21705;SDS011;11014;53.076;18.208;2023-09-19T00:32:10;27.08;;;21.25;;
21705;SDS011;11014;53.076;18.208;2023-09-19T00:34:39;24.00;;;21.38;;
21705;SDS011;11014;53.076;18.208;2023-09-19T00:37:08;25.67;;;21.63;;
21705;SDS011;11014;53.076;18.208;2023-09-19T00:39:39;25.83;;;21.67;;
21705;SDS011;11014;53.076;18.208;2023-09-19T00:42:09;28.13;;;21.77;;
21705;SDS011;11014;53.076;18.208;2023-09-19T00:45:11;26.77;;;21.20;;
21705;SDS011;11014;53.076;18.208;2023-09-19T00:47:42;26.60;;;21.83;;
21705;SDS011;11014;53.076;18.208;2023-09-19T00:50:18;24.65;;;21.90;;
21705;SDS011;11014;53.076;18.208;2023-09-19T00:52:52;25.77;;;21.60;;
21705;SDS011;11014;53.076;18.208;2023-09-19T00:55:25;26.48;;;21.75;;
21705;SDS011;11014;53.076;18.208;2023-09-19T00:57:57;23.35;;;20.70;;
21705;SDS011;11014;53.076;18.208;2023-09-19T01:00:26;25.77;;;20.98;;
21705;SDS011;11014;53.076;18.208;2023-09-19T01:02:57;22.88;;;20.52;;
21705;SDS011;11014;53.076;18.208;2023-09-19T01:05:27;23.75;;;18.17;;
21705;SDS011;11014;53.076;18.208;2023-09-19T01:07:56;20.92;;;18.77;;
21705;SDS011;11014;53.076;18.208;2023-09-19T01:10:25;18.73;;;16.52;;
21705;SDS011;11014;53.076;18.208;2023-09-19T01:15:50;14.02;;;10.77;;
21705;SDS011;11014;53.076;18.208;2023-09-19T01:26:44;12.13;;;8.55;;
21705;SDS011;11014;53.076;18.208;2023-09-19T01:32:08;11.40;;;8.45;;
21705;SDS011;11014;53.076;18.208;2023-09-19T01:34:48;10.82;;;8.32;;
21705;SDS011;11014;53.076;18.208;2023-09-19T01:37:17;10.88;;;8.68;;
21705;SDS011;11014;53.076;18.208;2023-09-19T01:40:00;13.48;;;9.40;;
21705;SDS011;11014;53.076;18.208;2023-09-19T01:45:48;10.65;;;8.30;;
21705;SDS011;11014;53.076;18.208;2023-09-19T01:48:22;14.52;;;9.00;;
21705;SDS011;11014;53.076;18.208;2023-09-19T01:51:00;10.35;;;8.23;;
21705;SDS011;11014;53.076;18.208;2023-09-19T01:53:45;8.55;;;7.40;;
21705;SDS011;11014;53.076;18.208;2023-09-19T01:56:23;11.52;;;7.57;;
21705;SDS011;11014;53.076;18.208;2023-09-19T01:58:56;9.88;;;7.32;;
21705;SDS011;11014;53.076;18.208;2023-09-19T02:01:32;13.13;;;7.88;;
21705;SDS011;11014;53.076;18.208;2023-09-19T02:04:03;8.98;;;8.07;;
21705;SDS011;11014;53.076;18.208;2023-09-19T02:06:32;10.20;;;7.97;;
21705;SDS011;11014;53.076;18.208;2023-09-19T02:09:02;11.63;;;7.50;;
21705;SDS011;11014;53.076;18.208;2023-09-19T02:11:31;11.68;;;6.82;;
21705;SDS011;11014;53.076;18.208;2023-09-19T02:14:00;9.18;;;6.88;;
21705;SDS011;11014;53.076;18.208;2023-09-19T02:16:30;9.23;;;6.85;;
21705;SDS011;11014;53.076;18.208;2023-09-19T02:19:00;8.73;;;6.30;;
21705;SDS011;11014;53.076;18.208;2023-09-19T02:21:29;9.32;;;5.65;;
21705;SDS011;11014;53.076;18.208;2023-09-19T02:23:59;7.68;;;5.85;;
21705;SDS011;11014;53.076;18.208;2023-09-19T02:26:28;7.43;;;5.97;;
21705;SDS011;11014;53.076;18.208;2023-09-19T02:28:57;9.90;;;6.28;;
21705;SDS011;11014;53.076;18.208;2023-09-19T02:31:25;8.35;;;5.40;;
21705;SDS011;11014;53.076;18.208;2023-09-19T02:33:57;9.38;;;5.55;;
21705;SDS011;11014;53.076;18.208;2023-09-19T02:36:25;6.43;;;5.63;;
21705;SDS011;11014;53.076;18.208;2023-09-19T02:38:55;8.73;;;5.45;;
21705;SDS011;11014;53.076;18.208;2023-09-19T02:41:24;8.73;;;5.90;;
21705;SDS011;11014;53.076;18.208;2023-09-19T02:43:54;8.40;;;5.90;;
21705;SDS011;11014;53.076;18.208;2023-09-19T02:46:23;8.43;;;5.85;;
21705;SDS011;11014;53.076;18.208;2023-09-19T02:48:51;7.35;;;5.65;;
21705;SDS011;11014;53.076;18.208;2023-09-19T02:51:20;9.60;;;5.80;;
21705;SDS011;11014;53.076;18.208;2023-09-19T02:53:49;7.65;;;5.80;;
21705;SDS011;11014;53.076;18.208;2023-09-19T02:56:20;9.82;;;6.60;;
21705;SDS011;11014;53.076;18.208;2023-09-19T02:58:49;9.63;;;6.20;;
21705;SDS011;11014;53.076;18.208;2023-09-19T03:01:18;9.07;;;6.53;;
21705;SDS011;11014;53.076;18.208;2023-09-19T03:03:47;10.43;;;7.13;;
21705;SDS011;11014;53.076;18.208;2023-09-19T03:06:16;11.07;;;7.53;;
21705;SDS011;11014;53.076;18.208;2023-09-19T03:08:46;11.15;;;7.47;;
21705;SDS011;11014;53.076;18.208;2023-09-19T03:11:17;10.75;;;7.60;;
21705;SDS011;11014;53.076;18.208;2023-09-19T03:13:53;21.70;;;9.02;;
21705;SDS011;11014;53.076;18.208;2023-09-19T03:16:23;16.48;;;10.15;;
21705;SDS011;11014;53.076;18.208;2023-09-19T03:18:58;21.05;;;11.07;;
21705;SDS011;11014;53.076;18.208;2023-09-19T03:21:30;13.63;;;9.02;;
21705;SDS011;11014;53.076;18.208;2023-09-19T03:23:59;15.15;;;9.75;;
21705;SDS011;11014;53.076;18.208;2023-09-19T03:26:28;12.07;;;7.93;;
21705;SDS011;11014;53.076;18.208;2023-09-19T03:28:56;11.82;;;8.77;;
21705;SDS011;11014;53.076;18.208;2023-09-19T03:31:25;14.88;;;9.63;;
21705;SDS011;11014;53.076;18.208;2023-09-19T03:33:54;13.18;;;8.82;;
21705;SDS011;11014;53.076;18.208;2023-09-19T03:36:22;10.35;;;8.43;;
21705;SDS011;11014;53.076;18.208;2023-09-19T03:38:51;11.48;;;8.25;;
21705;SDS011;11014;53.076;18.208;2023-09-19T03:41:20;15.00;;;8.52;;
21705;SDS011;11014;53.076;18.208;2023-09-19T03:43:50;14.52;;;8.60;;
21705;SDS011;11014;53.076;18.208;2023-09-19T03:46:19;12.38;;;8.35;;
21705;SDS011;11014;53.076;18.208;2023-09-19T03:48:49;15.25;;;8.07;;
21705;SDS011;11014;53.076;18.208;2023-09-19T03:51:18;14.32;;;8.60;;
21705;SDS011;11014;53.076;18.208;2023-09-19T03:53:46;15.18;;;8.52;;
21705;SDS011;11014;53.076;18.208;2023-09-19T03:56:17;14.00;;;8.02;;
21705;SDS011;11014;53.076;18.208;2023-09-19T03:58:47;12.70;;;8.13;;
21705;SDS011;11014;53.076;18.208;2023-09-19T04:01:16;16.67;;;7.85;;
21705;SDS011;11014;53.076;18.208;2023-09-19T04:03:52;11.65;;;8.15;;
21705;SDS011;11014;53.076;18.208;2023-09-19T04:06:23;12.88;;;10.00;;
21705;SDS011;11014;53.076;18.208;2023-09-19T04:08:53;12.55;;;7.32;;
21705;SDS011;11014;53.076;18.208;2023-09-19T04:11:22;10.55;;;7.45;;
21705;SDS011;11014;53.076;18.208;2023-09-19T04:13:51;10.73;;;7.55;;
21705;SDS011;11014;53.076;18.208;2023-09-19T04:16:20;12.48;;;8.10;;
21705;SDS011;11014;53.076;18.208;2023-09-19T04:18:52;13.88;;;7.35;;
21705;SDS011;11014;53.076;18.208;2023-09-19T04:21:20;9.80;;;7.13;;
21705;SDS011;11014;53.076;18.208;2023-09-19T04:23:49;13.27;;;8.18;;
21705;SDS011;11014;53.076;18.208;2023-09-19T04:26:17;13.07;;;8.38;;
21705;SDS011;11014;53.076;18.208;2023-09-19T04:28:46;11.88;;;7.82;;
21705;SDS011;11014;53.076;18.208;2023-09-19T04:31:14;13.43;;;8.05;;
21705;SDS011;11014;53.076;18.208;2023-09-19T04:33:44;12.70;;;7.45;;
21705;SDS011;11014;53.076;18.208;2023-09-19T04:36:12;12.85;;;7.32;;
21705;SDS011;11014;53.076;18.208;2023-09-19T04:39:02;11.27;;;7.13;;
21705;SDS011;11014;53.076;18.208;2023-09-19T04:41:33;10.18;;;6.63;;
21705;SDS011;11014;53.076;18.208;2023-09-19T04:44:02;10.80;;;6.78;;
21705;SDS011;11014;53.076;18.208;2023-09-19T04:46:31;9.65;;;7.25;;
21705;SDS011;11014;53.076;18.208;2023-09-19T04:49:01;11.77;;;7.20;;
21705;SDS011;11014;53.076;18.208;2023-09-19T04:51:30;10.93;;;6.72;;
21705;SDS011;11014;53.076;18.208;2023-09-19T04:54:02;11.82;;;7.00;;
21705;SDS011;11014;53.076;18.208;2023-09-19T04:56:31;8.13;;;6.57;;
21705;SDS011;11014;53.076;18.208;2023-09-19T05:01:54;9.65;;;6.80;;
21705;SDS011;11014;53.076;18.208;2023-09-19T05:04:23;10.25;;;7.03;;
21705;SDS011;11014;53.076;18.208;2023-09-19T05:06:51;9.65;;;7.07;;
21705;SDS011;11014;53.076;18.208;2023-09-19T05:09:20;8.95;;;6.70;;
21705;SDS011;11014;53.076;18.208;2023-09-19T05:11:48;12.13;;;7.20;;
21705;SDS011;11014;53.076;18.208;2023-09-19T05:14:17;10.02;;;6.53;;
21705;SDS011;11014;53.076;18.208;2023-09-19T05:16:45;8.82;;;6.60;;
21705;SDS011;11014;53.076;18.208;2023-09-19T05:19:14;13.02;;;7.30;;
21705;SDS011;11014;53.076;18.208;2023-09-19T05:21:43;9.27;;;6.28;;
21705;SDS011;11014;53.076;18.208;2023-09-19T05:24:12;11.48;;;6.93;;
21705;SDS011;11014;53.076;18.208;2023-09-19T05:26:42;9.25;;;6.20;;
21705;SDS011;11014;53.076;18.208;2023-09-19T05:29:11;10.07;;;6.30;;
21705;SDS011;11014;53.076;18.208;2023-09-19T05:31:39;8.90;;;6.43;;
21705;SDS011;11014;53.076;18.208;2023-09-19T05:34:09;11.25;;;6.43;;
21705;SDS011;11014;53.076;18.208;2023-09-19T05:36:38;8.82;;;5.97;;
21705;SDS011;11014;53.076;18.208;2023-09-19T05:39:07;9.80;;;6.32;;
21705;SDS011;11014;53.076;18.208;2023-09-19T05:41:37;7.70;;;6.30;;
21705;SDS011;11014;53.076;18.208;2023-09-19T05:44:08;9.75;;;7.15;;
21705;SDS011;11014;53.076;18.208;2023-09-19T05:46:37;9.52;;;6.30;;
21705;SDS011;11014;53.076;18.208;2023-09-19T05:49:06;10.38;;;5.80;;
21705;SDS011;11014;53.076;18.208;2023-09-19T05:51:34;9.32;;;4.88;;
21705;SDS011;11014;53.076;18.208;2023-09-19T05:54:03;9.88;;;5.75;;
21705;SDS011;11014;53.076;18.208;2023-09-19T05:56:33;6.68;;;5.40;;
21705;SDS011;11014;53.076;18.208;2023-09-19T05:59:02;8.02;;;5.25;;
21705;SDS011;11014;53.076;18.208;2023-09-19T06:01:32;7.38;;;5.10;;
21705;SDS011;11014;53.076;18.208;2023-09-19T06:04:02;8.40;;;4.85;;
21705;SDS011;11014;53.076;18.208;2023-09-19T06:06:32;7.68;;;4.90;;
21705;SDS011;11014;53.076;18.208;2023-09-19T06:09:07;7.60;;;5.43;;
21705;SDS011;11014;53.076;18.208;2023-09-19T06:11:36;7.05;;;4.75;;
21705;SDS011;11014;53.076;18.208;2023-09-19T06:14:06;7.75;;;4.38;;
21705;SDS011;11014;53.076;18.208;2023-09-19T06:16:34;9.48;;;5.03;;
21705;SDS011;11014;53.076;18.208;2023-09-19T06:19:03;9.00;;;4.90;;
21705;SDS011;11014;53.076;18.208;2023-09-19T06:21:34;7.20;;;4.82;;
21705;SDS011;11014;53.076;18.208;2023-09-19T06:24:03;8.90;;;4.63;;
21705;SDS011;11014;53.076;18.208;2023-09-19T06:26:32;10.02;;;4.95;;
21705;SDS011;11014;53.076;18.208;2023-09-19T06:29:01;7.65;;;5.63;;
21705;SDS011;11014;53.076;18.208;2023-09-19T06:31:34;7.47;;;5.82;;
21705;SDS011;11014;53.076;18.208;2023-09-19T06:34:03;7.05;;;5.70;;
21705;SDS011;11014;53.076;18.208;2023-09-19T06:36:32;7.43;;;5.72;;
21705;SDS011;11014;53.076;18.208;2023-09-19T06:39:01;5.68;;;5.10;;
21705;SDS011;11014;53.076;18.208;2023-09-19T06:41:32;8.70;;;6.53;;
21705;SDS011;11014;53.076;18.208;2023-09-19T06:44:06;7.28;;;6.10;;
21705;SDS011;11014;53.076;18.208;2023-09-19T06:46:35;9.30;;;6.47;;
21705;SDS011;11014;53.076;18.208;2023-09-19T06:49:07;8.57;;;6.20;;
21705;SDS011;11014;53.076;18.208;2023-09-19T06:51:38;9.97;;;6.70;;
21705;SDS011;11014;53.076;18.208;2023-09-19T06:54:07;7.03;;;6.28;;
21705;SDS011;11014;53.076;18.208;2023-09-19T06:56:36;8.50;;;6.78;;
21705;SDS011;11014;53.076;18.208;2023-09-19T06:59:05;8.32;;;6.50;;
21705;SDS011;11014;53.076;18.208;2023-09-19T07:01:34;9.07;;;6.95;;
21705;SDS011;11014;53.076;18.208;2023-09-19T07:04:05;10.02;;;7.47;;
21705;SDS011;11014;53.076;18.208;2023-09-19T07:06:33;7.72;;;6.93;;
21705;SDS011;11014;53.076;18.208;2023-09-19T07:09:03;8.70;;;7.15;;
21705;SDS011;11014;53.076;18.208;2023-09-19T07:11:32;7.18;;;6.57;;
21705;SDS011;11014;53.076;18.208;2023-09-19T07:14:02;8.02;;;6.85;;
21705;SDS011;11014;53.076;18.208;2023-09-19T07:16:31;8.05;;;7.15;;
21705;SDS011;11014;53.076;18.208;2023-09-19T07:19:00;8.25;;;7.45;;
21705;SDS011;11014;53.076;18.208;2023-09-19T07:21:30;9.57;;;7.50;;
21705;SDS011;11014;53.076;18.208;2023-09-19T07:23:59;8.10;;;7.30;;
21705;SDS011;11014;53.076;18.208;2023-09-19T07:26:28;10.82;;;6.97;;
21705;SDS011;11014;53.076;18.208;2023-09-19T07:28:57;8.27;;;7.25;;
21705;SDS011;11014;53.076;18.208;2023-09-19T07:31:26;9.27;;;7.35;;
21705;SDS011;11014;53.076;18.208;2023-09-19T07:33:55;10.32;;;7.47;;
21705;SDS011;11014;53.076;18.208;2023-09-19T07:36:24;11.43;;;7.63;;
21705;SDS011;11014;53.076;18.208;2023-09-19T07:38:53;10.93;;;7.20;;
21705;SDS011;11014;53.076;18.208;2023-09-19T07:41:39;9.52;;;7.70;;
21705;SDS011;11014;53.076;18.208;2023-09-19T07:44:08;8.45;;;7.55;;
21705;SDS011;11014;53.076;18.208;2023-09-19T07:46:40;9.85;;;8.13;;
21705;SDS011;11014;53.076;18.208;2023-09-19T07:49:08;11.90;;;7.57;;
21705;SDS011;11014;53.076;18.208;2023-09-19T07:51:39;10.85;;;8.10;;
21705;SDS011;11014;53.076;18.208;2023-09-19T07:54:08;9.10;;;7.80;;
21705;SDS011;11014;53.076;18.208;2023-09-19T07:56:38;8.93;;;8.05;;
21705;SDS011;11014;53.076;18.208;2023-09-19T07:59:07;10.32;;;7.85;;
21705;SDS011;11014;53.076;18.208;2023-09-19T08:01:38;13.40;;;7.75;;
21705;SDS011;11014;53.076;18.208;2023-09-19T08:04:08;12.38;;;7.75;;
21705;SDS011;11014;53.076;18.208;2023-09-19T08:06:37;10.07;;;7.95;;
21705;SDS011;11014;53.076;18.208;2023-09-19T08:09:07;12.27;;;8.13;;
21705;SDS011;11014;53.076;18.208;2023-09-19T08:11:39;9.68;;;8.15;;
21705;SDS011;11014;53.076;18.208;2023-09-19T08:14:08;10.13;;;8.38;;
21705;SDS011;11014;53.076;18.208;2023-09-19T08:16:37;10.30;;;8.70;;
21705;SDS011;11014;53.076;18.208;2023-09-19T08:19:06;9.13;;;7.90;;
21705;SDS011;11014;53.076;18.208;2023-09-19T08:21:34;10.30;;;8.18;;
21705;SDS011;11014;53.076;18.208;2023-09-19T08:24:03;11.82;;;8.80;;
21705;SDS011;11014;53.076;18.208;2023-09-19T08:26:33;9.90;;;8.48;;
21705;SDS011;11014;53.076;18.208;2023-09-19T08:29:01;10.18;;;8.88;;
21705;SDS011;11014;53.076;18.208;2023-09-19T08:34:02;10.82;;;8.23;;
21705;SDS011;11014;53.076;18.208;2023-09-19T08:36:30;13.88;;;8.88;;
21705;SDS011;11014;53.076;18.208;2023-09-19T08:38:59;11.38;;;9.15;;
21705;SDS011;11014;53.076;18.208;2023-09-19T08:41:28;8.82;;;8.00;;
21705;SDS011;11014;53.076;18.208;2023-09-19T08:44:00;10.20;;;8.32;;
21705;SDS011;11014;53.076;18.208;2023-09-19T08:46:31;9.13;;;8.25;;
21705;SDS011;11014;53.076;18.208;2023-09-19T08:49:08;9.45;;;8.45;;
21705;SDS011;11014;53.076;18.208;2023-09-19T08:55:04;9.07;;;7.82;;
21705;SDS011;11014;53.076;18.208;2023-09-19T08:57:38;8.20;;;7.40;;
21705;SDS011;11014;53.076;18.208;2023-09-19T09:00:10;11.05;;;8.13;;
21705;SDS011;11014;53.076;18.208;2023-09-19T09:02:43;10.32;;;7.40;;
21705;SDS011;11014;53.076;18.208;2023-09-19T09:05:12;8.30;;;7.57;;
21705;SDS011;11014;53.076;18.208;2023-09-19T09:07:42;9.43;;;7.18;;
21705;SDS011;11014;53.076;18.208;2023-09-19T09:10:12;8.80;;;7.03;;
21705;SDS011;11014;53.076;18.208;2023-09-19T09:12:41;9.82;;;6.90;;
21705;SDS011;11014;53.076;18.208;2023-09-19T09:15:12;6.68;;;6.07;;
21705;SDS011;11014;53.076;18.208;2023-09-19T09:17:46;7.22;;;6.05;;
21705;SDS011;11014;53.076;18.208;2023-09-19T09:20:17;7.97;;;5.80;;
21705;SDS011;11014;53.076;18.208;2023-09-19T09:23:05;5.80;;;5.20;;
21705;SDS011;11014;53.076;18.208;2023-09-19T09:25:50;5.75;;;4.82;;
21705;SDS011;11014;53.076;18.208;2023-09-19T09:28:25;5.75;;;3.83;;
21705;SDS011;11014;53.076;18.208;2023-09-19T09:30:59;4.88;;;3.83;;
21705;SDS011;11014;53.076;18.208;2023-09-19T09:33:36;4.28;;;3.40;;
21705;SDS011;11014;53.076;18.208;2023-09-19T09:36:10;4.13;;;3.65;;
21705;SDS011;11014;53.076;18.208;2023-09-19T09:38:46;4.72;;;3.25;;
21705;SDS011;11014;53.076;18.208;2023-09-19T09:41:27;4.38;;;3.53;;
21705;SDS011;11014;53.076;18.208;2023-09-19T09:44:12;4.25;;;3.65;;
21705;SDS011;11014;53.076;18.208;2023-09-19T09:46:47;4.07;;;3.50;;
21705;SDS011;11014;53.076;18.208;2023-09-19T09:49:23;5.50;;;3.60;;
21705;SDS011;11014;53.076;18.208;2023-09-19T09:52:04;5.05;;;4.45;;
21705;SDS011;11014;53.076;18.208;2023-09-19T09:55:01;6.38;;;4.03;;
21705;SDS011;11014;53.076;18.208;2023-09-19T09:57:36;7.90;;;4.15;;
21705;SDS011;11014;53.076;18.208;2023-09-19T10:00:05;4.43;;;3.97;;
21705;SDS011;11014;53.076;18.208;2023-09-19T10:02:40;4.97;;;4.47;;
21705;SDS011;11014;53.076;18.208;2023-09-19T10:05:19;5.13;;;4.38;;
21705;SDS011;11014;53.076;18.208;2023-09-19T10:07:50;7.07;;;4.30;;
21705;SDS011;11014;53.076;18.208;2023-09-19T10:10:55;4.80;;;4.22;;
21705;SDS011;11014;53.076;18.208;2023-09-19T10:13:34;8.65;;;4.30;;
21705;SDS011;11014;53.076;18.208;2023-09-19T10:16:06;4.75;;;4.03;;
21705;SDS011;11014;53.076;18.208;2023-09-19T10:18:38;5.72;;;3.78;;
21705;SDS011;11014;53.076;18.208;2023-09-19T10:21:11;5.90;;;4.00;;
21705;SDS011;11014;53.076;18.208;2023-09-19T10:23:41;5.22;;;3.85;;
21705;SDS011;11014;53.076;18.208;2023-09-19T10:26:15;3.80;;;3.40;;
21705;SDS011;11014;53.076;18.208;2023-09-19T10:28:47;4.00;;;2.30;;
21705;SDS011;11014;53.076;18.208;2023-09-19T10:31:19;4.10;;;2.70;;
21705;SDS011;11014;53.076;18.208;2023-09-19T10:33:52;5.70;;;2.70;;
21705;SDS011;11014;53.076;18.208;2023-09-19T10:36:24;2.13;;;1.93;;
21705;SDS011;11014;53.076;18.208;2023-09-19T10:38:56;3.72;;;2.10;;
21705;SDS011;11014;53.076;18.208;2023-09-19T10:41:29;2.30;;;1.80;;
21705;SDS011;11014;53.076;18.208;2023-09-19T10:44:02;3.50;;;2.35;;
21705;SDS011;11014;53.076;18.208;2023-09-19T10:46:33;4.45;;;2.17;;
21705;SDS011;11014;53.076;18.208;2023-09-19T10:49:02;5.40;;;2.47;;
21705;SDS011;11014;53.076;18.208;2023-09-19T10:51:33;4.28;;;2.20;;
21705;SDS011;11014;53.076;18.208;2023-09-19T10:54:11;3.95;;;2.25;;
21705;SDS011;11014;53.076;18.208;2023-09-19T10:56:50;3.92;;;2.20;;
21705;SDS011;11014;53.076;18.208;2023-09-19T10:59:22;3.00;;;2.20;;
21705;SDS011;11014;53.076;18.208;2023-09-19T11:01:52;2.70;;;2.05;;
21705;SDS011;11014;53.076;18.208;2023-09-19T11:04:26;2.70;;;2.28;;
21705;SDS011;11014;53.076;18.208;2023-09-19T11:07:09;3.67;;;2.45;;
21705;SDS011;11014;53.076;18.208;2023-09-19T11:09:53;5.00;;;2.40;;
21705;SDS011;11014;53.076;18.208;2023-09-19T11:14:58;3.45;;;2.10;;
21705;SDS011;11014;53.076;18.208;2023-09-19T11:17:31;4.03;;;2.40;;
21705;SDS011;11014;53.076;18.208;2023-09-19T11:30:46;2.97;;;1.80;;
21705;SDS011;11014;53.076;18.208;2023-09-19T11:33:30;4.55;;;1.95;;
21705;SDS011;11014;53.076;18.208;2023-09-19T11:43:52;3.60;;;2.20;;
21705;SDS011;11014;53.076;18.208;2023-09-19T11:49:26;3.85;;;2.00;;
21705;SDS011;11014;53.076;18.208;2023-09-19T11:51:59;2.95;;;1.90;;
21705;SDS011;11014;53.076;18.208;2023-09-19T11:54:36;4.13;;;2.33;;
21705;SDS011;11014;53.076;18.208;2023-09-19T11:57:08;2.20;;;1.73;;
21705;SDS011;11014;53.076;18.208;2023-09-19T11:59:38;5.32;;;2.10;;
21705;SDS011;11014;53.076;18.208;2023-09-19T12:02:08;4.70;;;2.10;;
21705;SDS011;11014;53.076;18.208;2023-09-19T12:04:46;2.90;;;1.95;;
21705;SDS011;11014;53.076;18.208;2023-09-19T12:07:16;5.03;;;2.03;;
21705;SDS011;11014;53.076;18.208;2023-09-19T12:10:20;3.72;;;2.03;;
21705;SDS011;11014;53.076;18.208;2023-09-19T12:12:47;2.55;;;1.70;;
21705;SDS011;11014;53.076;18.208;2023-09-19T12:15:24;2.30;;;1.98;;
21705;SDS011;11014;53.076;18.208;2023-09-19T12:17:57;2.78;;;2.00;;
21705;SDS011;11014;53.076;18.208;2023-09-19T12:20:41;2.30;;;2.10;;
21705;SDS011;11014;53.076;18.208;2023-09-19T12:23:18;4.32;;;1.75;;
21705;SDS011;11014;53.076;18.208;2023-09-19T12:25:48;2.97;;;1.90;;
21705;SDS011;11014;53.076;18.208;2023-09-19T12:28:22;7.15;;;2.40;;
21705;SDS011;11014;53.076;18.208;2023-09-19T12:30:55;2.38;;;1.90;;
21705;SDS011;11014;53.076;18.208;2023-09-19T12:36:47;2.67;;;1.77;;
21705;SDS011;11014;53.076;18.208;2023-09-19T12:47:40;4.50;;;1.90;;
21705;SDS011;11014;53.076;18.208;2023-09-19T12:50:29;2.85;;;2.10;;
21705;SDS011;11014;53.076;18.208;2023-09-19T12:52:58;2.90;;;1.70;;
21705;SDS011;11014;53.076;18.208;2023-09-19T12:55:29;4.25;;;2.08;;
21705;SDS011;11014;53.076;18.208;2023-09-19T12:58:15;3.63;;;2.10;;
21705;SDS011;11014;53.076;18.208;2023-09-19T13:00:47;3.78;;;2.00;;
21705;SDS011;11014;53.076;18.208;2023-09-19T13:06:36;3.72;;;1.60;;
21705;SDS011;11014;53.076;18.208;2023-09-19T13:29:15;2.85;;;1.88;;
21705;SDS011;11014;53.076;18.208;2023-09-19T13:31:47;2.97;;;2.10;;
21705;SDS011;11014;53.076;18.208;2023-09-19T13:41:16;5.00;;;2.45;;
21705;SDS011;11014;53.076;18.208;2023-09-19T13:43:46;4.38;;;2.15;;
21705;SDS011;11014;53.076;18.208;2023-09-19T13:49:15;3.75;;;2.30;;
21705;SDS011;11014;53.076;18.208;2023-09-19T13:51:50;3.58;;;2.08;;
21705;SDS011;11014;53.076;18.208;2023-09-19T13:58:49;2.80;;;2.30;;
21705;SDS011;11014;53.076;18.208;2023-09-19T14:01:26;4.78;;;2.28;;
21705;SDS011;11014;53.076;18.208;2023-09-19T14:04:19;4.93;;;2.40;;
21705;SDS011;11014;53.076;18.208;2023-09-19T14:07:08;3.03;;;2.45;;
21705;SDS011;11014;53.076;18.208;2023-09-19T14:10:30;4.85;;;1.92;;
21705;SDS011;11014;53.076;18.208;2023-09-19T14:29:47;8.68;;;2.47;;
21705;SDS011;11014;53.076;18.208;2023-09-19T14:32:29;4.45;;;2.67;;
21705;SDS011;11014;53.076;18.208;2023-09-19T14:35:07;4.97;;;2.72;;
21705;SDS011;11014;53.076;18.208;2023-09-19T14:37:42;3.17;;;2.55;;
21705;SDS011;11014;53.076;18.208;2023-09-19T14:40:59;3.25;;;2.67;;
21705;SDS011;11014;53.076;18.208;2023-09-19T14:44:01;5.53;;;2.95;;
21705;SDS011;11014;53.076;18.208;2023-09-19T14:46:55;3.67;;;2.58;;
21705;SDS011;11014;53.076;18.208;2023-09-19T14:49:26;4.90;;;3.00;;
21705;SDS011;11014;53.076;18.208;2023-09-19T14:51:54;4.40;;;2.70;;
21705;SDS011;11014;53.076;18.208;2023-09-19T14:54:24;5.03;;;2.75;;
21705;SDS011;11014;53.076;18.208;2023-09-19T14:57:02;4.70;;;3.05;;
21705;SDS011;11014;53.076;18.208;2023-09-19T14:59:45;5.18;;;3.00;;
21705;SDS011;11014;53.076;18.208;2023-09-19T15:02:14;6.82;;;3.10;;
21705;SDS011;11014;53.076;18.208;2023-09-19T15:07:15;3.28;;;2.97;;
21705;SDS011;11014;53.076;18.208;2023-09-19T15:09:48;5.68;;;3.00;;
21705;SDS011;11014;53.076;18.208;2023-09-19T15:12:36;3.85;;;3.15;;
21705;SDS011;11014;53.076;18.208;2023-09-19T15:15:06;5.13;;;3.20;;
21705;SDS011;11014;53.076;18.208;2023-09-19T15:17:36;4.53;;;3.28;;
21705;SDS011;11014;53.076;18.208;2023-09-19T15:20:06;5.18;;;3.00;;
21705;SDS011;11014;53.076;18.208;2023-09-19T15:22:35;4.88;;;3.08;;
21705;SDS011;11014;53.076;18.208;2023-09-19T15:25:04;7.45;;;3.40;;
21705;SDS011;11014;53.076;18.208;2023-09-19T15:27:33;6.72;;;3.20;;
21705;SDS011;11014;53.076;18.208;2023-09-19T15:30:06;4.78;;;2.90;;
21705;SDS011;11014;53.076;18.208;2023-09-19T15:32:38;4.05;;;3.17;;
21705;SDS011;11014;53.076;18.208;2023-09-19T15:35:24;5.53;;;3.33;;
21705;SDS011;11014;53.076;18.208;2023-09-19T15:41:33;6.93;;;3.33;;
21705;SDS011;11014;53.076;18.208;2023-09-19T15:44:15;7.55;;;3.80;;
21705;SDS011;11014;53.076;18.208;2023-09-19T15:46:47;5.68;;;3.85;;
21705;SDS011;11014;53.076;18.208;2023-09-19T15:49:16;4.75;;;3.33;;
21705;SDS011;11014;53.076;18.208;2023-09-19T15:51:45;7.20;;;3.67;;
21705;SDS011;11014;53.076;18.208;2023-09-19T15:54:14;6.38;;;3.83;;
21705;SDS011;11014;53.076;18.208;2023-09-19T15:56:45;7.60;;;3.67;;
21705;SDS011;11014;53.076;18.208;2023-09-19T15:59:14;6.57;;;4.13;;
21705;SDS011;11014;53.076;18.208;2023-09-19T16:01:44;4.45;;;3.65;;
21705;SDS011;11014;53.076;18.208;2023-09-19T16:04:13;5.15;;;3.88;;
21705;SDS011;11014;53.076;18.208;2023-09-19T16:06:43;15.90;;;4.35;;
21705;SDS011;11014;53.076;18.208;2023-09-19T16:09:11;8.60;;;5.00;;
21705;SDS011;11014;53.076;18.208;2023-09-19T16:11:40;6.53;;;4.00;;
21705;SDS011;11014;53.076;18.208;2023-09-19T16:14:34;8.50;;;4.35;;
21705;SDS011;11014;53.076;18.208;2023-09-19T16:17:03;4.93;;;4.40;;
21705;SDS011;11014;53.076;18.208;2023-09-19T16:19:32;8.05;;;4.05;;
21705;SDS011;11014;53.076;18.208;2023-09-19T16:22:01;5.35;;;3.95;;
21705;SDS011;11014;53.076;18.208;2023-09-19T16:24:30;6.00;;;3.60;;
21705;SDS011;11014;53.076;18.208;2023-09-19T16:26:58;7.25;;;4.30;;
21705;SDS011;11014;53.076;18.208;2023-09-19T16:29:27;6.90;;;4.20;;
21705;SDS011;11014;53.076;18.208;2023-09-19T16:31:56;5.40;;;4.05;;
21705;SDS011;11014;53.076;18.208;2023-09-19T16:34:26;6.15;;;4.57;;
21705;SDS011;11014;53.076;18.208;2023-09-19T16:36:56;4.63;;;3.83;;
21705;SDS011;11014;53.076;18.208;2023-09-19T16:39:26;7.78;;;4.47;;
21705;SDS011;11014;53.076;18.208;2023-09-19T16:41:54;7.47;;;4.10;;
21705;SDS011;11014;53.076;18.208;2023-09-19T16:44:23;7.32;;;4.47;;
21705;SDS011;11014;53.076;18.208;2023-09-19T16:46:52;9.02;;;4.57;;
21705;SDS011;11014;53.076;18.208;2023-09-19T16:52:24;10.40;;;5.45;;
21705;SDS011;11014;53.076;18.208;2023-09-19T16:54:53;9.88;;;5.93;;
21705;SDS011;11014;53.076;18.208;2023-09-19T16:57:24;9.90;;;5.07;;
21705;SDS011;11014;53.076;18.208;2023-09-19T16:59:53;7.63;;;5.03;;
21705;SDS011;11014;53.076;18.208;2023-09-19T17:02:21;8.07;;;5.10;;
21705;SDS011;11014;53.076;18.208;2023-09-19T17:04:50;8.15;;;5.10;;